Time;durP1;ratioP1;P1;durP2;ratioP2;P2;SDS_P1;SDS_P2;PMS_P1;PMS_P2;Temp;Humidity;BMP_temperature;BMP_pressure;BME280_temperature;BME280_humidity;BME280_pressure;Samples;Min_cycle;Max_cycle;Signal;HPM_P1;HPM_P2
2021/04/19 00:01:23;;;;;;;5.40;2.67;;;;;;;23.63;39.85;99612.84;4484603;32;33745;-59
2021/04/19 00:03:52;;;;;;;8.20;2.85;;;;;;;23.61;39.88;99606.81;4483197;32;33343;-61
2021/04/19 00:06:20;;;;;;;7.37;2.95;;;;;;;23.61;39.99;99604.09;4484348;32;33678;-61
2021/04/19 00:08:47;;;;;;;8.25;2.90;;;;;;;23.62;39.82;99602.19;4484452;32;34647;-61
2021/04/19 00:11:15;;;;;;;5.00;2.80;;;;;;;23.62;40.03;99607.66;4484373;32;33860;-61
2021/04/19 00:13:43;;;;;;;8.90;3.03;;;;;;;23.61;39.82;99601.38;4484787;32;33316;-61
2021/04/19 00:16:10;;;;;;;9.57;2.80;;;;;;;23.61;39.91;99600.53;4483257;31;33859;-61
2021/04/19 00:18:37;;;;;;;8.68;2.87;;;;;;;23.60;39.79;99594.28;4483379;31;34481;-60
2021/04/19 00:21:05;;;;;;;7.70;2.80;;;;;;;23.59;39.73;99591.75;4483025;31;34712;-61
2021/04/19 00:23:33;;;;;;;7.32;3.10;;;;;;;23.60;39.83;99593.44;4483996;31;34169;-59
2021/04/19 00:26:02;;;;;;;4.90;2.60;;;;;;;23.59;39.79;99595.31;4484269;32;34704;-60
2021/04/19 00:28:30;;;;;;;6.97;2.53;;;;;;;23.59;39.77;99592.59;4483062;31;33969;-61
2021/04/19 00:30:57;;;;;;;6.22;2.50;;;;;;;23.58;39.86;99590.09;4484462;32;33077;-61
2021/04/19 00:33:24;;;;;;;5.72;2.67;;;;;;;23.58;40.08;99590.09;4478495;32;33260;-58
2021/04/19 00:35:51;;;;;;;8.55;3.10;;;;;;;23.58;39.96;99595.56;4483260;32;32888;-58
2021/04/19 00:38:18;;;;;;;13.75;3.10;;;;;;;23.58;40.27;99590.09;4468531;31;34681;-59
2021/04/19 00:40:46;;;;;;;5.10;2.60;;;;;;;23.57;39.83;99589.28;4473001;31;33456;-58
2021/04/19 00:43:13;;;;;;;6.15;2.90;;;;;;;23.56;39.72;99584.91;4476796;31;33559;-61
2021/04/19 00:45:40;;;;;;;5.97;2.70;;;;;;;23.57;40.03;99580.28;4483794;31;33658;-61
2021/04/19 00:48:08;;;;;;;7.20;2.65;;;;;;;23.57;39.90;99581.09;4470182;32;33849;-61
2021/04/19 00:50:35;;;;;;;7.90;2.90;;;;;;;23.55;39.78;99583.25;4482295;31;34393;-60
2021/04/19 00:53:03;;;;;;;7.90;2.60;;;;;;;23.55;39.82;99577.78;4482864;31;33298;-61
2021/04/19 00:55:30;;;;;;;7.18;2.97;;;;;;;23.54;39.90;99576.13;4481882;31;33467;-60
2021/04/19 00:58:16;;;;;;;6.53;2.72;;;;;;;23.54;39.78;99581.56;4483524;31;33617;-59
2021/04/19 01:00:44;;;;;;;5.90;2.40;;;;;;;23.53;40.02;99579.91;4482783;32;33763;-61
2021/04/19 01:03:11;;;;;;;4.93;2.58;;;;;;;23.52;39.93;99578.25;4475409;31;33935;-60
2021/04/19 01:05:40;;;;;;;6.65;2.62;;;;;;;23.52;39.93;99583.69;4479859;31;33929;-61
2021/04/19 01:08:07;;;;;;;4.85;2.45;;;;;;;23.51;39.91;99581.22;4484223;32;34827;-60
2021/04/19 01:10:35;;;;;;;5.90;2.85;;;;;;;23.50;39.92;99574.09;4483552;31;33743;-61
2021/04/19 01:13:04;;;;;;;7.35;3.40;;;;;;;23.49;40.11;99566.97;4483649;31;33086;-60
2021/04/19 01:15:32;;;;;;;8.55;3.03;;;;;;;23.48;40.05;99574.31;4483387;31;34845;-60
2021/04/19 01:17:59;;;;;;;6.47;2.35;;;;;;;23.48;39.99;99573.50;4482547;31;33835;-62
2021/04/19 01:20:28;;;;;;;6.82;2.75;;;;;;;23.48;39.85;99574.31;4483323;31;33686;-61
2021/04/19 01:23:01;;;;;;;4.57;2.47;;;;;;;23.46;39.97;99570.19;4483349;31;33096;-61
2021/04/19 01:25:28;;;;;;;6.57;2.45;;;;;;;23.45;39.87;99569.34;4482480;31;34648;-61
2021/04/19 01:27:56;;;;;;;7.15;2.58;;;;;;;23.45;39.95;99569.34;4483279;31;34820;-61
2021/04/19 01:30:32;;;;;;;5.60;2.15;;;;;;;23.45;39.99;99571.22;4483882;32;34448;-60
2021/04/19 01:32:59;;;;;;;7.30;2.67;;;;;;;23.46;40.05;99572.91;4483403;31;34115;-61
2021/04/19 01:35:27;;;;;;;6.45;2.47;;;;;;;23.45;39.94;99566.63;4482886;31;33827;-61
2021/04/19 01:37:54;;;;;;;6.65;2.65;;;;;;;23.43;40.11;99574.19;4483794;32;33849;-61
2021/04/19 01:40:22;;;;;;;5.40;2.42;;;;;;;23.43;40.04;99568.75;4483431;31;33408;-61
2021/04/19 01:42:49;;;;;;;5.20;2.55;;;;;;;23.42;40.01;99567.09;4483870;32;33909;-61
2021/04/19 01:45:17;;;;;;;6.47;2.30;;;;;;;23.42;40.01;99572.53;4482679;31;34670;-61
2021/04/19 01:47:45;;;;;;;6.65;2.70;;;;;;;23.42;39.94;99569.81;4483271;31;35123;-60
2021/04/19 01:50:18;;;;;;;5.43;2.37;;;;;;;23.42;39.95;99575.25;4480712;31;33699;-60
2021/04/19 01:52:45;;;;;;;5.30;2.58;;;;;;;23.40;39.80;99570.03;4483369;31;33438;-61
2021/04/19 01:55:15;;;;;;;6.07;2.50;;;;;;;23.41;40.10;99574.44;4483378;31;35216;-61
2021/04/19 01:57:45;;;;;;;6.30;2.50;;;;;;;23.40;40.07;99569.19;4483177;31;33864;-60
2021/04/19 02:00:13;;;;;;;5.55;3.05;;;;;;;23.40;39.92;99564.59;4481727;32;34585;-61
2021/04/19 02:02:58;;;;;;;5.30;2.42;;;;;;;23.41;39.78;99565.44;4482296;32;33225;-60
2021/04/19 02:05:49;;;;;;;7.12;3.62;;;;;;;23.40;39.87;99567.31;4483211;31;33500;-61
2021/04/19 02:08:16;;;;;;;5.50;2.20;;;;;;;23.39;39.93;99567.56;4482572;32;33706;-61
2021/04/19 02:10:46;;;;;;;6.87;2.25;;;;;;;23.40;39.82;99570.03;4482831;31;34750;-61
2021/04/19 02:13:22;;;;;;;7.15;2.30;;;;;;;23.38;39.80;99572.16;4482063;32;33131;-60
2021/04/19 02:15:56;;;;;;;4.93;2.20;;;;;;;23.40;39.84;99564.59;4468343;32;34643;-61
2021/04/19 02:18:35;;;;;;;5.75;2.67;;;;;;;23.38;39.95;99572.16;4481430;32;34497;-60
2021/04/19 02:21:08;;;;;;;3.70;2.22;;;;;;;23.38;40.00;99565.91;4459523;32;33646;-60
2021/04/19 02:23:40;;;;;;;6.45;2.22;;;;;;;23.37;39.90;99565.06;4467771;32;33977;-60
2021/04/19 02:26:27;;;;;;;5.87;2.20;;;;;;;23.37;39.99;99570.50;4466493;32;34652;-61
2021/04/19 02:29:23;;;;;;;4.43;2.20;;;;;;;23.37;39.95;99561.53;4483351;31;34483;-61
2021/04/19 02:31:54;;;;;;;5.28;2.10;;;;;;;23.36;40.01;99565.28;4472144;31;33856;-61
2021/04/19 02:34:21;;;;;;;4.05;2.00;;;;;;;23.34;39.96;99557.34;4470510;32;33383;-61
2021/04/19 02:36:50;;;;;;;5.53;2.35;;;;;;;23.35;39.92;99558.19;4471345;32;33789;-61
2021/04/19 02:39:18;;;;;;;5.80;2.78;;;;;;;23.35;39.96;99550.84;4483282;32;33603;-61
2021/04/19 02:41:52;;;;;;;5.57;2.10;;;;;;;23.34;39.85;99557.34;4483694;32;34371;-60
2021/04/19 02:44:23;;;;;;;4.43;2.10;;;;;;;23.33;39.99;99555.69;4483535;31;33230;-61
2021/04/19 02:46:53;;;;;;;5.50;2.60;;;;;;;23.34;39.79;99557.34;4484094;32;33842;-61
2021/04/19 02:49:23;;;;;;;5.32;2.60;;;;;;;23.34;39.88;99564.69;4484294;31;33691;-61
2021/04/19 02:51:50;;;;;;;5.82;2.45;;;;;;;23.34;39.96;99559.25;4483625;32;34370;-61
2021/04/19 02:54:20;;;;;;;8.85;2.42;;;;;;;23.33;39.98;99558.41;4483351;31;34159;-61
2021/04/19 02:56:47;;;;;;;4.85;2.37;;;;;;;23.33;39.85;99555.69;4483801;32;34839;-61
2021/04/19 02:59:15;;;;;;;3.53;1.77;;;;;;;23.33;39.81;99552.97;4483114;31;33889;-61
2021/04/19 03:01:42;;;;;;;6.25;2.47;;;;;;;23.32;39.96;99545.06;4484853;32;33452;-60
2021/04/19 03:04:12;;;;;;;4.37;2.10;;;;;;;23.32;39.88;99545.88;4483793;31;33245;-61
2021/04/19 03:06:41;;;;;;;5.93;2.55;;;;;;;23.32;39.84;99550.50;4484086;32;33908;-60
2021/04/19 03:09:08;;;;;;;5.03;2.50;;;;;;;23.33;39.86;99549.44;4470240;32;33814;-61
2021/04/19 03:11:42;;;;;;;4.57;2.10;;;;;;;23.31;39.88;99546.91;4470683;32;33799;-61
2021/04/19 03:14:10;;;;;;;6.70;2.53;;;;;;;23.31;39.85;99548.81;4470033;32;34440;-61
2021/04/19 03:16:41;;;;;;;5.62;2.25;;;;;;;23.29;39.98;99546.34;4484684;32;33875;-61
2021/04/19 03:19:09;;;;;;;7.87;2.67;;;;;;;23.30;40.09;99547.97;4469474;31;33902;-60
2021/04/19 03:21:39;;;;;;;4.20;2.03;;;;;;;23.31;40.04;99555.09;4469014;32;34646;-60
2021/04/19 03:24:10;;;;;;;5.28;2.12;;;;;;;23.31;40.13;99551.53;4475803;31;33343;-61
2021/04/19 03:26:39;;;;;;;6.25;2.53;;;;;;;23.29;39.88;99540.88;4483267;32;34742;-61
2021/04/19 03:29:07;;;;;;;4.68;2.10;;;;;;;23.30;39.98;99550.72;4483331;32;34811;-60
2021/04/19 03:31:43;;;;;;;4.22;2.45;;;;;;;23.29;39.90;99548.22;4483147;32;33715;-61
2021/04/19 03:34:17;;;;;;;5.57;2.40;;;;;;;23.29;40.07;99551.78;4482977;31;33107;-61
2021/04/19 03:36:45;;;;;;;5.07;2.35;;;;;;;23.29;40.22;99549.06;4482802;32;33763;-61
2021/04/19 03:39:13;;;;;;;7.05;2.10;;;;;;;23.29;40.14;99553.66;4482802;31;34948;-61
2021/04/19 03:41:42;;;;;;;5.93;2.15;;;;;;;23.28;39.99;99547.41;4483291;32;33653;-61
2021/04/19 03:44:12;;;;;;;4.35;2.17;;;;;;;23.27;39.91;99548.47;4482782;31;33236;-61
2021/04/19 03:46:40;;;;;;;4.30;2.10;;;;;;;23.27;40.00;99548.47;4483731;32;33585;-60
2021/04/19 03:49:13;;;;;;;3.47;1.85;;;;;;;23.27;39.94;99553.91;4482563;31;33855;-61
2021/04/19 03:51:41;;;;;;;5.45;1.65;;;;;;;23.26;39.80;99551.41;4483486;32;33618;-61
2021/04/19 03:54:09;;;;;;;4.40;2.50;;;;;;;23.26;39.94;99552.22;4482351;31;33196;-60
2021/04/19 03:56:37;;;;;;;4.30;1.90;;;;;;;23.27;39.94;99551.19;4483244;32;33907;-61
2021/04/19 03:59:07;;;;;;;3.55;1.92;;;;;;;23.26;39.91;99557.66;4482171;32;34752;-61
2021/04/19 04:01:34;;;;;;;5.95;2.40;;;;;;;23.25;39.99;99557.91;4470583;32;33663;-61
2021/04/19 04:04:02;;;;;;;4.30;2.22;;;;;;;23.26;39.91;99556.84;4481601;31;34427;-61
2021/04/19 04:06:30;;;;;;;5.53;2.22;;;;;;;23.24;39.95;99556.25;4484672;32;33862;-61
2021/04/19 04:08:57;;;;;;;7.12;2.40;;;;;;;23.24;39.84;99550.81;4482787;31;33852;-60
2021/04/19 04:11:25;;;;;;;4.57;1.90;;;;;;;23.25;39.92;99557.91;4469601;32;33553;-61
2021/04/19 04:13:52;;;;;;;5.12;2.37;;;;;;;23.23;39.89;99557.34;4469722;32;32974;-60
2021/04/19 04:16:20;;;;;;;3.83;1.85;;;;;;;23.22;39.92;99561.09;4479269;32;33733;-61
2021/04/19 04:18:51;;;;;;;3.20;1.90;;;;;;;23.23;40.09;99562.78;4481551;31;34271;-59
2021/04/19 04:21:19;;;;;;;3.33;1.80;;;;;;;23.22;39.90;99561.09;4484908;31;33919;-60
2021/04/19 04:23:47;;;;;;;3.78;1.90;;;;;;;23.21;39.92;99556.72;4481864;31;33189;-61
2021/04/19 04:26:15;;;;;;;5.68;2.00;;;;;;;23.20;39.92;99553.16;4482503;32;33486;-61
2021/04/19 04:28:44;;;;;;;3.53;2.17;;;;;;;23.21;39.86;99556.72;4483206;32;34775;-61
2021/04/19 04:31:12;;;;;;;3.62;1.77;;;;;;;23.21;40.02;99564.88;4483973;31;33701;-61
2021/04/19 04:33:40;;;;;;;4.55;1.85;;;;;;;23.20;39.76;99565.94;4484546;32;32807;-61
2021/04/19 04:36:08;;;;;;;4.65;1.98;;;;;;;23.19;39.81;99559.69;4483978;31;33774;-61
2021/04/19 04:38:36;;;;;;;3.83;2.20;;;;;;;23.20;39.85;99563.22;4484280;32;34657;-58
2021/04/19 04:41:05;;;;;;;4.10;2.15;;;;;;;23.20;39.85;99563.22;4483709;31;33681;-59
2021/04/19 04:43:34;;;;;;;3.40;1.70;;;;;;;23.19;39.84;99559.69;4484214;32;34469;-61
2021/04/19 04:46:07;;;;;;;3.67;2.10;;;;;;;23.19;39.86;99564.28;4465739;32;33877;-61
2021/04/19 04:48:41;;;;;;;3.00;1.80;;;;;;;23.17;40.07;99562.62;4467598;32;34525;-61
2021/04/19 04:51:11;;;;;;;6.18;1.83;;;;;;;23.17;40.15;99561.78;4468386;32;34631;-61
2021/04/19 04:53:42;;;;;;;;;;;;;;;23.17;40.17;99557.19;4483812;31;33245;-60
2021/04/19 04:56:15;;;;;;;4.50;1.92;;;;;;;23.28;39.99;99561.00;4483943;31;34141;-60
2021/04/19 04:58:43;;;;;;;7.22;2.05;;;;;;;23.20;39.98;99563.22;4482189;32;33811;-61
2021/04/19 05:01:10;;;;;;;3.15;1.85;;;;;;;23.17;40.00;99564.50;4469501;32;33672;-60
2021/04/19 05:03:38;;;;;;;4.82;1.95;;;;;;;23.16;40.08;99569.13;4482808;32;33239;-60
2021/04/19 05:06:10;;;;;;;5.40;1.90;;;;;;;23.14;40.05;99568.53;4482896;31;33499;-61
2021/04/19 05:08:39;;;;;;;3.60;1.95;;;;;;;23.17;40.02;99569.94;4482789;32;34810;-61
2021/04/19 05:11:07;;;;;;;4.57;1.90;;;;;;;23.16;39.93;99571.00;4482054;32;33420;-61
2021/04/19 05:13:34;;;;;;;4.53;1.83;;;;;;;23.15;40.14;99572.09;4484007;32;33286;-60
2021/04/19 05:16:02;;;;;;;4.18;1.85;;;;;;;23.15;40.07;99569.34;4482474;31;33737;-60
2021/04/19 05:18:29;;;;;;;4.68;1.90;;;;;;;23.15;39.99;99569.34;4483821;32;34925;-60
2021/04/19 05:20:57;;;;;;;7.25;1.98;;;;;;;23.15;39.97;99572.09;4481448;32;34553;-54
2021/04/19 05:23:25;;;;;;;4.40;2.00;;;;;;;23.15;40.09;99569.34;4480571;32;33990;-58
2021/04/19 05:25:52;;;;;;;3.70;1.75;;;;;;;23.14;40.07;99563.09;4480825;32;34554;-59
2021/04/19 05:28:19;;;;;;;9.90;2.12;;;;;;;23.15;40.28;99569.34;4466860;32;33824;-58
2021/04/19 05:30:48;;;;;;;6.28;2.00;;;;;;;23.14;40.17;99568.53;4468031;32;33688;-58
2021/04/19 05:33:16;;;;;;;6.50;2.08;;;;;;;23.13;40.09;99568.78;4480079;32;34065;-58
2021/04/19 05:35:44;;;;;;;10.25;1.90;;;;;;;23.14;40.03;99573.97;4480009;32;33677;-60
2021/04/19 05:38:12;;;;;;;4.78;2.37;;;;;;;23.15;40.07;99574.81;4478436;32;33915;-55
2021/04/19 05:40:39;;;;;;;4.70;1.75;;;;;;;23.14;40.18;99573.97;4466136;32;34604;-57
2021/04/19 05:43:07;;;;;;;6.68;2.17;;;;;;;23.13;40.13;99569.59;4466705;32;33263;-53
2021/04/19 05:45:35;;;;;;;3.95;2.12;;;;;;;23.14;40.07;99567.69;4470432;32;33736;-56
2021/04/19 05:48:03;;;;;;;3.22;1.90;;;;;;;23.13;40.01;99568.78;4477416;31;33813;-57
2021/04/19 05:50:31;;;;;;;3.70;2.17;;;;;;;23.13;40.13;99571.50;4480324;32;33704;-57
2021/04/19 05:53:00;;;;;;;6.07;1.92;;;;;;;23.13;40.20;99575.03;4483596;32;33119;-58
2021/04/19 05:55:28;;;;;;;4.45;2.10;;;;;;;23.13;40.19;99575.03;4482015;32;33885;-54
2021/04/19 05:58:17;;;;;;;7.37;2.00;;;;;;;23.14;40.34;99573.16;4478289;32;34626;-54
2021/04/19 06:00:50;;;;;;;6.93;2.22;;;;;;;23.16;40.25;99580.00;4481358;32;34454;-55
2021/04/19 06:03:29;;;;;;;10.88;2.50;;;;;;;23.15;40.19;99572.91;4482158;32;33386;-59
2021/04/19 06:06:09;;;;;;;10.02;2.22;;;;;;;23.14;40.26;99570.44;4482076;32;34948;-56
2021/04/19 06:09:04;;;;;;;6.55;1.80;;;;;;;23.18;40.25;99568.91;4469755;32;33822;-59
2021/04/19 06:11:40;;;;;;;5.37;2.05;;;;;;;23.36;40.16;99574.31;4466748;32;33631;-58
2021/04/19 06:14:11;;;;;;;4.80;1.73;;;;;;;23.50;39.95;99574.94;4467758;32;33036;-56
2021/04/19 06:16:39;;;;;;;8.20;2.37;;;;;;;23.66;39.69;99577.00;4453717;32;33686;-57
2021/04/19 06:19:11;;;;;;;5.35;2.17;;;;;;;23.81;39.47;99581.19;4466678;32;35056;-55
2021/04/19 06:21:39;;;;;;;7.60;2.40;;;;;;;23.94;39.27;99572.81;4453614;32;34218;-59
2021/04/19 06:24:06;;;;;;;6.87;2.00;;;;;;;24.07;39.06;99579.94;4466324;32;33294;-59
2021/04/19 06:26:34;;;;;;;8.48;1.83;;;;;;;24.21;38.83;99580.53;4467509;32;34115;-58
2021/04/19 06:29:02;;;;;;;8.65;1.80;;;;;;;24.35;38.58;99576.50;4467419;32;33755;-57
2021/04/19 06:31:31;;;;;;;8.48;2.03;;;;;;;24.49;38.35;99583.41;4467586;32;34453;-57
2021/04/19 06:33:58;;;;;;;7.60;2.08;;;;;;;24.65;38.12;99576.34;4467924;32;33295;-58
2021/04/19 06:36:25;;;;;;;7.85;1.70;;;;;;;24.79;37.91;99576.94;4483047;32;34534;-58
2021/04/19 06:38:52;;;;;;;6.78;1.77;;;;;;;24.91;37.70;99580.47;4482914;32;34885;-59
2021/04/19 06:41:20;;;;;;;8.07;1.77;;;;;;;25.01;37.52;99579.84;4482786;32;34634;-57
2021/04/19 06:43:47;;;;;;;18.10;5.85;;;;;;;25.11;37.49;99563.69;4482578;32;34564;-58
2021/04/19 06:46:15;;;;;;;20.52;3.15;;;;;;;25.14;36.00;99574.97;4481670;32;34471;-58
2021/04/19 06:48:42;;;;;;;21.83;3.75;;;;;;;25.10;36.46;99573.78;4482633;31;35450;-54
2021/04/19 06:51:11;;;;;;;16.52;3.95;;;;;;;25.10;36.17;99573.78;4482499;32;34643;-58
2021/04/19 06:53:38;;;;;;;19.52;3.42;;;;;;;25.12;35.94;99571.63;4481420;32;33318;-57
2021/04/19 06:56:07;;;;;;;13.68;2.60;;;;;;;25.14;35.92;99576.88;4482994;32;32148;-59
2021/04/19 06:58:35;;;;;;;10.48;3.30;;;;;;;25.15;35.96;99582.06;4468309;32;34554;-58
2021/04/19 07:01:02;;;;;;;17.27;3.00;;;;;;;25.16;36.02;99582.91;4468431;32;33750;-58
2021/04/19 07:03:30;;;;;;;11.77;2.90;;;;;;;25.16;36.03;99575.53;4468439;32;33129;-58
2021/04/19 07:05:57;;;;;;;9.60;2.40;;;;;;;25.16;36.07;99580.16;4468534;32;34291;-58
2021/04/19 07:08:55;;;;;;;8.25;2.22;;;;;;;25.13;36.14;99575.19;4473544;32;33733;-59
2021/04/19 07:11:22;;;;;;;18.10;3.28;;;;;;;25.13;36.16;99573.31;4475573;31;34610;-60
2021/04/19 07:13:49;;;;;;;13.38;2.40;;;;;;;25.08;36.25;99573.19;4467735;32;33331;-58
2021/04/19 07:16:16;;;;;;;9.70;2.58;;;;;;;25.05;36.44;99576.38;4466894;32;33916;-58
2021/04/19 07:18:45;;;;;;;9.20;2.55;;;;;;;25.03;36.61;99564.88;4454443;32;33804;-58
2021/04/19 07:21:13;;;;;;;6.87;2.50;;;;;;;25.01;36.72;99568.94;4468321;32;33796;-59
2021/04/19 07:23:40;;;;;;;11.00;3.60;;;;;;;24.99;36.79;99560.97;4478772;32;33458;-59
2021/04/19 07:26:08;;;;;;;10.80;2.87;;;;;;;24.98;36.87;99563.94;4481975;32;34521;-59
2021/04/19 07:28:38;;;;;;;11.98;2.87;;;;;;;24.94;36.94;99571.78;4484413;32;34579;-58
2021/04/19 07:31:07;;;;;;;11.82;2.53;;;;;;;24.91;37.02;99567.66;4483665;32;33620;-59
2021/04/19 07:33:35;;;;;;;8.27;2.60;;;;;;;24.87;37.15;99566.47;4482402;32;34109;-59
2021/04/19 07:36:24;;;;;;;9.13;2.50;;;;;;;24.85;37.28;99571.31;4482946;32;34591;-58
2021/04/19 07:38:52;;;;;;;12.93;2.40;;;;;;;24.87;37.35;99568.38;4477653;32;33965;-59
2021/04/19 07:41:19;;;;;;;13.00;3.37;;;;;;;24.81;37.52;99564.72;4484158;32;34598;-60
2021/04/19 07:43:48;;;;;;;11.57;2.70;;;;;;;24.77;37.64;99558.06;4482712;32;33353;-59
2021/04/19 07:46:17;;;;;;;10.52;2.80;;;;;;;24.74;37.77;99560.44;4484592;32;34411;-57
2021/04/19 07:48:52;;;;;;;13.75;2.80;;;;;;;24.72;37.87;99557.16;4484546;31;34797;-59
2021/04/19 07:51:34;;;;;;;13.48;2.85;;;;;;;24.67;37.90;99561.44;4483649;32;33784;-58
2021/04/19 07:54:18;;;;;;;14.98;2.75;;;;;;;24.66;37.94;99559.75;4468675;32;33490;-59
2021/04/19 07:56:51;;;;;;;11.35;2.85;;;;;;;24.63;37.97;99557.50;4478463;32;33544;-57
2021/04/19 07:59:29;;;;;;;10.77;2.40;;;;;;;24.59;37.98;99559.06;4482955;32;34750;-58
2021/04/19 08:02:05;;;;;;;17.25;3.00;;;;;;;24.56;37.99;99554.06;4483956;32;33751;-58
2021/04/19 08:04:33;;;;;;;11.82;2.80;;;;;;;24.53;38.04;99554.56;4484157;32;33228;-60
2021/04/19 08:07:00;;;;;;;9.77;2.65;;;;;;;24.50;38.08;99551.50;4483706;32;33810;-59
2021/04/19 08:09:31;;;;;;;9.73;2.60;;;;;;;24.47;38.25;99544.59;4483367;32;33892;-58
2021/04/19 08:12:08;;;;;;;10.95;2.47;;;;;;;24.43;38.36;99541.53;4483931;32;33558;-56
2021/04/19 08:14:54;;;;;;;9.18;2.72;;;;;;;24.43;38.40;99552.47;4484200;32;33360;-58
2021/04/19 08:17:27;;;;;;;9.23;2.60;;;;;;;24.42;38.54;99552.66;4484145;32;33759;-59
2021/04/19 08:19:54;;;;;;;10.80;2.45;;;;;;;24.39;38.62;99554.00;4482993;32;33828;-60
2021/04/19 08:22:24;;;;;;;12.32;2.83;;;;;;;24.38;38.65;99554.22;4484299;32;33810;-57
2021/04/19 08:24:51;;;;;;;10.15;2.47;;;;;;;24.37;38.71;99547.09;4484087;32;33317;-57
2021/04/19 08:27:23;;;;;;;7.78;2.70;;;;;;;24.38;38.71;99546.03;4469655;32;33518;-59
2021/04/19 08:29:50;;;;;;;9.77;2.47;;;;;;;24.38;38.72;99554.22;4484074;32;33896;-59
2021/04/19 08:32:19;;;;;;;9.00;2.62;;;;;;;24.35;38.75;99550.06;4483860;32;33734;-58
2021/04/19 08:34:49;;;;;;;10.63;2.62;;;;;;;24.33;38.84;99551.34;4483613;32;33270;-59
2021/04/19 08:37:19;;;;;;;11.35;2.70;;;;;;;24.31;38.89;99546.13;4483550;32;33542;-58
2021/04/19 08:39:46;;;;;;;8.20;2.67;;;;;;;24.29;38.96;99545.53;4488388;31;35193;-58
2021/04/19 08:42:19;;;;;;;10.98;2.55;;;;;;;24.28;38.99;99549.34;4483771;32;34461;-60
2021/04/19 08:44:47;;;;;;;9.32;2.72;;;;;;;24.27;39.01;99552.31;4476199;32;33374;-58
2021/04/19 08:47:18;;;;;;;15.55;2.97;;;;;;;24.26;38.98;99556.09;4467249;32;33713;-60
2021/04/19 08:49:47;;;;;;;10.57;3.80;;;;;;;24.25;39.06;99546.25;4467732;32;33527;-57
2021/04/19 08:52:15;;;;;;;8.23;2.60;;;;;;;24.22;39.05;99550.28;4468092;32;34500;-58
2021/04/19 08:54:44;;;;;;;9.93;2.60;;;;;;;24.21;39.17;99548.63;4468479;32;34091;-57
2021/04/19 08:57:11;;;;;;;14.18;3.40;;;;;;;24.21;39.13;99545.09;4475769;32;34328;-59
2021/04/19 08:59:41;;;;;;;11.18;2.85;;;;;;;24.20;39.09;99546.97;4483496;32;34814;-58
2021/04/19 09:02:08;;;;;;;10.38;2.47;;;;;;;24.18;39.22;99549.09;4482702;32;33719;-58
2021/04/19 09:04:35;;;;;;;9.27;2.10;;;;;;;24.17;39.26;99547.47;4467710;32;33151;-60
2021/04/19 09:07:03;;;;;;;9.18;2.20;;;;;;;24.16;39.29;99546.63;4468049;32;33515;-59
2021/04/19 09:09:42;;;;;;;12.05;2.67;;;;;;;24.15;39.27;99549.56;4480197;32;34472;-59
2021/04/19 09:12:10;;;;;;;6.32;2.08;;;;;;;24.15;39.30;99550.44;4483872;32;33772;-59
2021/04/19 09:14:41;;;;;;;10.90;2.37;;;;;;;24.13;39.35;99544.37;4483137;32;34039;-59
2021/04/19 09:17:08;;;;;;;10.23;2.30;;;;;;;24.13;39.34;99546.25;4483636;32;33975;-58
2021/04/19 09:19:36;;;;;;;13.50;2.80;;;;;;;24.13;39.28;99543.53;4482970;32;33843;-59
2021/04/19 09:22:11;;;;;;;8.13;2.00;;;;;;;24.11;39.35;99549.25;4483276;32;33488;-59
2021/04/19 09:25:12;;;;;;;10.80;3.15;;;;;;;24.10;39.47;99549.47;4483815;32;33790;-59
2021/04/19 09:27:42;;;;;;;5.72;2.30;;;;;;;24.11;39.46;99548.41;4483449;32;33772;-60
2021/04/19 09:30:28;;;;;;;11.27;2.25;;;;;;;24.06;39.54;99546.41;4482179;32;33873;-58
2021/04/19 09:33:04;;;;;;;10.77;2.72;;;;;;;24.07;39.55;99550.78;4483448;32;34304;-60
2021/04/19 09:35:45;;;;;;;7.25;2.15;;;;;;;24.05;39.61;99554.78;4483802;32;34139;-59
2021/04/19 09:38:12;;;;;;;;;;;;;;;24.04;39.65;99544.97;4483127;32;34708;-59
2021/04/19 09:41:05;;;;;;;7.93;2.30;;;;;;;24.11;39.48;99548.41;4483519;32;34930;-58
2021/04/19 09:43:38;;;;;;;8.95;2.62;;;;;;;24.04;39.52;99553.13;4483266;32;34459;-59
2021/04/19 09:46:16;;;;;;;9.35;2.37;;;;;;;23.98;39.67;99549.47;4483346;32;33097;-59
2021/04/19 09:48:44;;;;;;;11.02;3.30;;;;;;;23.98;39.60;99552.19;4483594;32;33739;-60
2021/04/19 09:51:18;;;;;;;10.25;2.50;;;;;;;23.95;39.60;99547.19;4482975;32;33885;-59
2021/04/19 09:53:45;;;;;;;7.50;2.50;;;;;;;23.96;39.64;99540.69;4483416;32;33845;-60
2021/04/19 09:56:14;;;;;;;7.87;2.17;;;;;;;23.95;39.68;99549.09;4482490;32;34106;-60
2021/04/19 09:58:42;;;;;;;13.23;2.58;;;;;;;23.95;39.73;99543.66;4482753;32;33830;-59
2021/04/19 10:01:09;;;;;;;11.02;2.40;;;;;;;23.94;39.68;99542.81;4481809;32;35164;-59
2021/04/19 10:03:37;;;;;;;12.52;2.42;;;;;;;23.93;39.73;99538.44;4482860;32;34329;-60
2021/04/19 10:06:06;;;;;;;8.60;2.25;;;;;;;23.94;39.72;99548.28;4482462;32;35434;-60
2021/04/19 10:08:35;;;;;;;8.07;2.30;;;;;;;23.95;39.68;99538.19;4468955;32;33916;-56
2021/04/19 10:11:04;;;;;;;9.32;2.37;;;;;;;23.92;39.77;99534.91;4483209;32;33605;-60
2021/04/19 10:13:33;;;;;;;10.65;2.60;;;;;;;23.93;39.71;99535.72;4469211;32;35074;-60
2021/04/19 10:16:11;;;;;;;6.28;2.20;;;;;;;23.91;39.75;99530.50;4481922;32;33380;-60
2021/04/19 10:18:40;;;;;;;10.38;2.83;;;;;;;23.94;39.72;99529.19;4482733;32;34596;-56
2021/04/19 10:21:09;;;;;;;12.02;2.17;;;;;;;23.92;39.74;99534.03;4483011;32;34809;-59
2021/04/19 10:23:43;;;;;;;6.62;2.33;;;;;;;23.90;39.81;99530.72;4483083;32;34159;-59
2021/04/19 10:26:11;;;;;;;8.32;2.53;;;;;;;23.90;39.83;99533.47;4482986;32;33376;-58
2021/04/19 10:28:43;;;;;;;7.70;2.37;;;;;;;23.90;39.80;99533.47;4483197;32;34611;-59
2021/04/19 10:31:17;;;;;;;7.40;2.22;;;;;;;23.90;39.89;99528.00;4482702;32;33867;-59
2021/04/19 10:33:49;;;;;;;9.07;2.53;;;;;;;23.89;39.88;99529.91;4481561;32;33305;-60
2021/04/19 10:36:23;;;;;;;5.95;2.30;;;;;;;23.87;39.87;99523.84;4482425;32;34076;-59
2021/04/19 10:38:52;;;;;;;9.05;2.10;;;;;;;23.87;39.95;99528.47;4480845;32;33988;-60
2021/04/19 10:41:33;;;;;;;25.30;3.17;;;;;;;23.88;39.80;99530.16;4482977;32;33819;-58
2021/04/19 10:44:01;;;;;;;35.47;4.62;;;;;;;23.87;39.82;99525.75;4482579;32;33538;-59
2021/04/19 10:46:32;;;;;;;28.38;3.53;;;;;;;23.83;39.88;99522.69;4479972;32;34819;-59
2021/04/19 10:49:00;;;;;;;23.45;3.47;;;;;;;23.82;40.00;99526.44;4491909;31;33746;-58
2021/04/19 10:51:32;;;;;;;31.10;3.97;;;;;;;23.82;40.02;99525.62;4484722;32;34064;-56
2021/04/19 10:54:02;;;;;;;26.50;3.40;;;;;;;23.82;40.00;99521.00;4477114;32;34469;-56
2021/04/19 10:56:29;;;;;;;34.42;3.45;;;;;;;23.82;39.99;99522.91;4468697;32;34816;-59
2021/04/19 10:59:01;;;;;;;30.45;3.75;;;;;;;23.82;39.99;99523.72;4468664;32;33915;-59
2021/04/19 11:01:37;;;;;;;22.95;3.95;;;;;;;23.81;40.06;99518.53;4467807;32;34427;-59
2021/04/19 11:04:06;;;;;;;31.25;3.97;;;;;;;23.81;40.06;99521.25;4479218;32;33927;-58
2021/04/19 11:06:34;;;;;;;14.25;3.22;;;;;;;23.81;40.07;99522.06;4484536;32;34361;-57
2021/04/19 11:09:08;;;;;;;23.25;3.40;;;;;;;23.81;40.10;99515.81;4473853;32;33644;-57
2021/04/19 11:11:35;;;;;;;18.33;3.45;;;;;;;23.81;40.12;99521.25;4477028;32;33816;-58
2021/04/19 11:14:13;;;;;;;20.27;3.30;;;;;;;23.79;40.09;99517.94;4484707;32;33876;-57
2021/04/19 11:16:59;;;;;;;18.55;3.03;;;;;;;23.80;40.14;99516.88;4484657;32;33084;-59
2021/04/19 11:19:45;;;;;;;11.68;2.87;;;;;;;23.79;40.18;99520.66;4483300;32;34534;-59
2021/04/19 11:22:33;;;;;;;21.50;4.35;;;;;;;23.79;40.09;99516.03;4484732;32;33545;-59
2021/04/19 11:25:29;;;;;;;14.75;3.12;;;;;;;23.78;40.17;99516.25;4485064;32;33560;-68
2021/04/19 11:28:16;;;;;;;20.98;4.37;;;;;;;23.74;40.14;99520.56;4484649;32;33335;-59
2021/04/19 11:30:43;;;;;;;25.80;3.60;;;;;;;23.74;40.02;99520.56;4484683;32;34647;-57
2021/04/19 11:33:12;;;;;;;23.27;3.28;;;;;;;23.72;39.95;99519.94;4484672;32;34685;-59
2021/04/19 11:35:43;;;;;;;18.52;3.83;;;;;;;23.69;39.83;99513.09;4484870;32;33883;-57
2021/04/19 11:38:31;;;;;;;18.95;3.70;;;;;;;23.68;39.78;99512.22;4484785;32;33254;-59
2021/04/19 11:41:08;;;;;;;24.17;3.10;;;;;;;23.71;39.68;99510.12;4483872;32;33722;-58
2021/04/19 11:43:48;;;;;;;19.33;3.30;;;;;;;23.68;39.67;99506.78;4484505;32;33935;-59
2021/04/19 11:46:17;;;;;;;24.70;3.40;;;;;;;23.68;39.70;99509.50;4482946;32;33801;-58
2021/04/19 11:48:46;;;;;;;16.30;3.40;;;;;;;23.65;39.74;99510.00;4482138;31;33165;-58